Time;durP1;ratioP1;P1;durP2;ratioP2;P2;SDS_P1;SDS_P2;PMS_P1;PMS_P2;Temp;Humidity;BMP_temperature;BMP_pressure;BME280_temperature;BME280_humidity;BME280_pressure;Samples;Min_cycle;Max_cycle;Signal;HPM_P1;HPM_P2
2021/06/24 00:04:30;;;;;;;8.80;5.67;;;;;;;13.97;100.00;102280.19;1931046;72;39563;-81
2021/06/24 00:09:55;;;;;;;6.63;5.23;;;;;;;13.66;100.00;102275.55;1837365;77;86019;-78
2021/06/24 00:15:19;;;;;;;6.57;5.10;;;;;;;13.82;100.00;102263.34;1947142;73;39518;-77
2021/06/24 00:20:45;;;;;;;7.33;6.17;;;;;;;13.68;100.00;102276.98;1877073;75;86348;-78
2021/06/24 00:26:10;;;;;;;11.20;6.17;;;;;;;13.73;100.00;102265.00;1838766;77;86158;-82
2021/06/24 00:31:34;;;;;;;9.20;7.00;;;;;;;13.67;100.00;102264.13;1912504;73;39672;-77
2021/06/24 00:36:59;;;;;;;9.17;6.17;;;;;;;13.65;100.00;102278.91;1832677;78;86092;-81
2021/06/24 00:42:26;;;;;;;7.17;5.93;;;;;;;13.32;100.00;102290.42;1900180;73;39596;-77
2021/06/24 00:47:51;;;;;;;7.93;6.33;;;;;;;13.05;100.00;102278.49;1877034;75;86098;-79
2021/06/24 00:53:17;;;;;;;7.80;6.43;;;;;;;12.98;100.00;102282.05;1921821;73;39419;-78
2021/06/24 00:58:44;;;;;;;9.13;7.00;;;;;;;12.98;100.00;102281.48;1877306;75;86309;-81
2021/06/24 01:04:07;;;;;;;11.07;6.60;;;;;;;13.11;100.00;102280.23;1825196;76;85975;-78
2021/06/24 01:09:32;;;;;;;6.93;5.77;;;;;;;13.08;100.00;102287.16;1914115;73;39501;-81
2021/06/24 01:14:58;;;;;;;7.27;6.10;;;;;;;13.03;100.00;102276.52;1882793;75;85612;-79
2021/06/24 01:20:26;;;;;;;7.20;6.03;;;;;;;12.67;100.00;102290.68;1918604;73;39547;-80
2021/06/24 01:25:52;;;;;;;10.23;6.83;;;;;;;12.46;100.00;102281.28;1837192;77;85556;-81
2021/06/24 01:31:18;;;;;;;9.53;6.50;;;;;;;12.54;100.00;102278.02;1904706;73;39524;-78
2021/06/24 01:36:43;;;;;;;9.73;6.57;;;;;;;12.66;100.00;102287.63;1877122;75;86234;-80
2021/06/24 01:42:12;;;;;;;10.80;7.10;;;;;;;12.61;100.00;102291.76;1869494;76;86618;-81
2021/06/24 01:47:37;;;;;;;8.80;6.70;;;;;;;12.42;100.00;102299.63;1875300;74;39457;-77
2021/06/24 01:53:00;;;;;;;11.57;7.40;;;;;;;12.66;100.00;102300.98;1780105;79;85597;-80
2021/06/24 01:58:27;;;;;;;8.87;7.43;;;;;;;12.66;100.00;102299.59;1946152;73;39595;-80
2021/06/24 02:03:53;;;;;;;10.87;7.63;;;;;;;12.65;100.00;102290.97;1837154;77;86624;-81
2021/06/24 02:09:17;;;;;;;9.27;7.27;;;;;;;12.63;100.00;102289.53;1947739;73;39478;-78
2021/06/24 02:14:42;;;;;;;9.23;7.30;;;;;;;12.43;100.00;102290.17;1942848;73;39563;-78
2021/06/24 02:20:11;;;;;;;9.43;7.30;;;;;;;12.62;100.00;102302.62;1777407;79;86438;-80
2021/06/24 02:25:36;;;;;;;7.97;6.17;;;;;;;12.53;100.00;102295.02;1943838;73;39551;-78
2021/06/24 02:31:03;;;;;;;10.27;7.57;;;;;;;12.27;100.00;102296.70;1881463;75;86572;-80
2021/06/24 02:36:28;;;;;;;10.17;7.50;;;;;;;12.19;100.00;102288.80;1916332;73;39608;-78
2021/06/24 02:41:52;;;;;;;7.60;6.90;;;;;;;12.40;100.00;102293.50;1837105;77;86596;-78
2021/06/24 02:47:17;;;;;;;10.00;7.10;;;;;;;12.01;100.00;102296.09;1923933;71;39614;-80
2021/06/24 02:52:40;;;;;;;8.20;7.30;;;;;;;12.02;100.00;102299.19;1943365;73;39800;-78
2021/06/24 02:58:09;;;;;;;8.27;7.23;;;;;;;11.98;100.00;102287.70;1881551;75;86527;-80
2021/06/24 03:03:53;;;;;;;10.50;8.50;;;;;;;12.05;100.00;102287.52;1880974;73;86766;-80
2021/06/24 03:09:17;;;;;;;13.47;10.00;;;;;;;12.06;100.00;102281.69;1948195;73;39732;-78
2021/06/24 03:14:42;;;;;;;12.00;9.43;;;;;;;12.08;100.00;102278.08;1907822;74;86348;-78
2021/06/24 03:20:10;;;;;;;12.83;9.73;;;;;;;11.92;100.00;102282.34;1883762;74;86458;-78
2021/06/24 03:25:35;;;;;;;12.43;9.43;;;;;;;11.88;100.00;102282.02;1913978;72;39750;-78
2021/06/24 03:31:01;;;;;;;12.27;9.47;;;;;;;11.78;100.00;102278.55;1782305;78;86752;-80
2021/06/24 03:36:28;;;;;;;13.10;9.90;;;;;;;11.76;100.00;102283.55;1945487;73;39622;-81
2021/06/24 03:41:52;;;;;;;13.30;10.63;;;;;;;11.85;100.00;102284.75;1882858;75;85438;-79
2021/06/24 03:47:16;;;;;;;12.37;10.13;;;;;;;11.75;100.00;102276.28;1912768;73;39674;-80
2021/06/24 03:52:40;;;;;;;11.43;10.00;;;;;;;11.71;100.00;102282.05;1890338;73;39599;-80
2021/06/24 03:58:07;;;;;;;15.17;10.33;;;;;;;11.63;100.00;102282.50;1868553;75;85651;-80
2021/06/24 04:03:35;;;;;;;13.70;10.23;;;;;;;11.58;100.00;102273.23;1932445;73;39475;-79
2021/06/24 04:09:00;;;;;;;13.23;10.03;;;;;;;11.78;100.00;102272.12;1823822;77;86633;-81
2021/06/24 04:14:24;;;;;;;12.00;10.00;;;;;;;11.91;100.00;102272.29;1944710;73;39637;-78
2021/06/24 04:19:49;;;;;;;11.13;9.83;;;;;;;11.62;100.00;102273.84;1877035;75;85582;-78
2021/06/24 04:25:15;;;;;;;14.03;12.47;;;;;;;11.68;100.00;102267.23;1949255;73;39630;-78
2021/06/24 04:30:40;;;;;;;14.77;12.30;;;;;;;11.92;100.00;102268.41;1911596;73;39522;-78
2021/06/24 04:36:06;;;;;;;14.57;11.93;;;;;;;11.96;100.00;102278.77;1869279;76;86436;-78
2021/06/24 04:41:30;;;;;;;18.90;14.17;;;;;;;11.97;100.00;102279.07;1944989;73;39782;-80
2021/06/24 04:46:56;;;;;;;19.87;14.47;;;;;;;12.26;100.00;102279.68;1868680;77;86453;-81
2021/06/24 04:52:20;;;;;;;18.67;14.27;;;;;;;12.38;100.00;102275.34;1947071;73;39542;-80
2021/06/24 04:57:44;;;;;;;17.93;15.00;;;;;;;12.16;100.00;102287.91;1876918;75;86538;-78
2021/06/24 05:03:11;;;;;;;17.73;14.63;;;;;;;12.35;100.00;102285.62;1925739;73;40377;-78
2021/06/24 05:08:37;;;;;;;16.70;14.20;;;;;;;12.30;100.00;102283.63;1914285;73;40269;-78
2021/06/24 05:14:02;;;;;;;16.83;14.57;;;;;;;12.21;100.00;102281.86;1785093;79;86112;-79
2021/06/24 05:19:27;;;;;;;16.80;14.83;;;;;;;12.32;100.00;102282.24;1900088;73;39671;-78
2021/06/24 05:24:52;;;;;;;18.07;15.43;;;;;;;12.34;100.00;102284.78;1837110;77;86506;-80
2021/06/24 05:30:19;;;;;;;19.30;16.47;;;;;;;12.50;100.00;102285.22;1923045;73;39517;-78
2021/06/24 05:35:45;;;;;;;18.97;15.77;;;;;;;12.63;100.00;102285.34;1845692;77;86360;-78
2021/06/24 05:41:12;;;;;;;18.43;15.73;;;;;;;12.84;100.00;102282.19;1882486;75;86847;-80
2021/06/24 05:46:39;;;;;;;19.57;17.07;;;;;;;12.71;100.00;102279.29;1927755;72;39526;-81
2021/06/24 05:52:04;;;;;;;18.63;15.80;;;;;;;13.03;100.00;102280.70;1785097;79;85993;-78
2021/06/24 05:57:28;;;;;;;18.63;16.03;;;;;;;13.21;100.00;102271.39;1916814;73;39600;-79
2021/06/24 06:02:59;;;;;;;19.03;16.20;;;;;;;13.21;100.00;102276.97;1882816;74;86190;-78
2021/06/24 06:08:24;;;;;;;19.77;16.77;;;;;;;13.27;100.00;102279.77;1918840;73;39674;-78
2021/06/24 06:13:48;;;;;;;23.80;17.80;;;;;;;13.46;100.00;102276.84;1877357;75;86472;-81
2021/06/24 06:19:14;;;;;;;23.23;18.50;;;;;;;13.66;100.00;102270.81;1949005;73;39784;-78
2021/06/24 06:24:39;;;;;;;23.30;19.50;;;;;;;13.88;100.00;102258.62;1912452;73;39676;-78
2021/06/24 06:30:27;;;;;;;22.10;18.23;;;;;;;14.01;100.00;102260.91;1928412;73;49124;-74
2021/06/24 06:35:58;;;;;;;20.90;18.57;;;;;;;14.19;100.00;102260.97;1911334;73;86461;-78
2021/06/24 06:41:16;;;;;;;21.73;18.77;;;;;;;14.36;100.00;102250.42;1892627;74;39537;-77
2021/06/24 06:49:31;;;;;;;23.20;20.03;;;;;;;14.61;100.00;102240.67;1952958;71;39579;-80
2021/06/24 06:52:01;;;;;;;23.20;19.63;;;;;;;14.64;100.00;102245.70;1845332;76;938746;-80
2021/06/24 06:57:32;;;;;;;27.23;20.10;;;;;;;14.74;100.00;102235.09;1933071;72;39655;-79
2021/06/24 07:02:55;;;;;;;26.57;20.80;;;;;;;14.96;100.00;102230.05;1869136;76;86571;-79
2021/06/24 07:11:44;;;;;;;25.30;21.10;;;;;;;15.30;100.00;102231.67;1992129;69;39567;-80
2021/06/24 07:14:18;;;;;;;26.80;22.20;;;;;;;15.33;100.00;102236.14;1936166;73;936599;-78
2021/06/24 07:16:58;;;;;;;25.43;20.47;;;;;;;15.44;100.00;102234.17;1936119;73;940734;-78
2021/06/24 07:19:28;;;;;;;26.45;20.72;;;;;;;15.53;100.00;102231.66;1865939;73;939834;-79
2021/06/24 07:21:58;;;;;;;26.37;20.90;;;;;;;15.61;100.00;102236.11;1849834;76;940855;-78
2021/06/24 07:24:28;;;;;;;27.07;21.47;;;;;;;15.69;100.00;102232.72;1827333;76;940888;-78
2021/06/24 07:27:03;;;;;;;25.77;21.53;;;;;;;15.71;100.00;102237.45;1845517;76;940780;-78
2021/06/24 07:29:33;;;;;;;24.05;19.95;;;;;;;15.79;100.00;102239.66;1830093;76;940952;-77
2021/06/24 07:32:03;;;;;;;23.20;19.03;;;;;;;15.96;100.00;102246.30;1870188;76;940873;-81
2021/06/24 07:34:34;;;;;;;23.30;19.77;;;;;;;16.08;100.00;102245.98;1858141;76;940840;-76
2021/06/24 07:37:05;;;;;;;23.80;18.77;;;;;;;16.26;100.00;102243.34;1870334;76;938888;-79
2021/06/24 07:39:35;;;;;;;22.65;18.95;;;;;;;16.43;100.00;102248.56;1872884;75;940768;-80
2021/06/24 07:42:06;;;;;;;20.90;18.13;;;;;;;16.67;100.00;102249.56;1870312;76;938905;-83
2021/06/24 07:44:36;;;;;;;23.57;18.30;;;;;;;16.76;100.00;102246.41;1858055;76;940852;-78
2021/06/24 07:50:01;;;;;;;21.60;18.23;;;;;;;16.86;100.00;102227.81;1947893;71;86597;-77
2021/06/24 07:55:33;;;;;;;22.20;18.37;;;;;;;17.18;100.00;102228.05;1880627;74;39712;-77
2021/06/24 08:00:53;;;;;;;21.50;18.07;;;;;;;17.27;100.00;102223.47;1837474;77;86632;-77
2021/06/24 08:06:17;;;;;;;19.97;16.87;;;;;;;17.15;100.00;102232.87;1922879;73;39705;-77
2021/06/24 08:11:43;;;;;;;20.83;17.10;;;;;;;17.41;100.00;102237.09;1907973;74;86065;-78
2021/06/24 08:17:06;;;;;;;19.37;16.77;;;;;;;17.98;100.00;102231.91;1877790;75;86385;-77
2021/06/24 08:22:31;;;;;;;20.47;17.10;;;;;;;18.19;100.00;102222.61;1916016;73;39480;-77
2021/06/24 08:27:58;;;;;;;18.07;15.30;;;;;;;18.42;100.00;102212.44;1878752;75;86631;-77
2021/06/24 08:33:23;;;;;;;20.60;16.50;;;;;;;18.41;100.00;102210.19;1919070;73;39590;-86
2021/06/24 08:38:47;;;;;;;19.10;15.57;;;;;;;18.44;100.00;102196.10;1877210;75;86293;-79
2021/06/24 08:44:12;;;;;;;18.30;15.83;;;;;;;19.20;100.00;102194.80;1939749;73;39650;-77
2021/06/24 08:49:38;;;;;;;17.50;15.27;;;;;;;19.34;100.00;102183.78;1915270;73;39416;-81
2021/06/24 08:54:57;;;;;;;18.13;15.50;;;;;;;19.47;100.00;102184.40;1950802;71;86865;-77
2021/06/24 09:00:22;;;;;;;18.60;15.27;;;;;;;19.35;100.00;102188.28;1920280;73;39488;-77
2021/06/24 09:05:56;;;;;;;18.63;15.43;;;;;;;19.78;100.00;102183.19;1903837;74;85494;-77
2021/06/24 09:11:28;;;;;;;16.77;14.33;;;;;;;20.24;100.00;102167.45;1932061;73;39587;-78
2021/06/24 09:16:59;;;;;;;18.27;15.67;;;;;;;20.49;100.00;102170.87;1893375;74;86414;-76
2021/06/24 09:22:25;;;;;;;17.03;15.20;;;;;;;20.61;100.00;102169.14;1922154;72;39537;-76
2021/06/24 09:27:51;;;;;;;18.27;16.40;;;;;;;20.83;100.00;102172.53;1797535;79;86017;-76
2021/06/24 09:33:22;;;;;;;18.53;16.53;;;;;;;21.22;100.00;102163.30;1916188;72;39460;-78
2021/06/24 09:38:52;;;;;;;17.97;16.07;;;;;;;21.04;100.00;102168.00;1837705;77;85853;-77
2021/06/24 09:44:22;;;;;;;18.93;16.33;;;;;;;20.89;100.00;102166.98;1935390;72;39516;-81
2021/06/24 09:50:00;;;;;;;17.50;8.13;;;;;;;21.03;100.00;102163.50;1882994;74;86358;-78
2021/06/24 09:58:17;;;;;;;16.90;15.13;;;;;;;20.70;100.00;102177.09;1956408;71;39553;-78
2021/06/24 10:00:52;;;;;;;20.70;17.13;;;;;;;20.63;100.00;102175.85;1880843;74;938733;-78
2021/06/24 10:03:25;;;;;;;14.83;13.00;;;;;;;20.56;100.00;102184.79;1833029;77;940940;-78
2021/06/24 10:05:55;;;;;;;16.30;14.60;;;;;;;20.49;100.00;102182.16;1835619;77;940830;-78
2021/06/24 10:08:25;;;;;;;16.90;15.20;;;;;;;20.46;100.00;102183.62;1823375;77;941740;-78
2021/06/24 10:10:55;;;;;;;18.90;16.10;;;;;;;20.42;100.00;102180.61;1835539;77;938914;-78
2021/06/24 10:13:29;;;;;;;16.93;14.70;;;;;;;20.44;100.00;102181.13;1802992;76;940855;-78
2021/06/24 10:15:58;;;;;;;16.40;14.70;;;;;;;20.44;100.00;102179.72;1871488;74;938787;-78
2021/06/24 10:18:30;;;;;;;16.37;14.67;;;;;;;20.48;100.00;102174.84;1859619;75;940752;-78
2021/06/24 10:21:01;;;;;;;15.43;13.83;;;;;;;20.47;100.00;102181.63;1871877;75;938956;-78
2021/06/24 10:23:33;;;;;;;16.10;14.20;;;;;;;20.46;100.00;102182.20;1859478;75;940760;-79
2021/06/24 10:26:04;;;;;;;16.53;14.83;;;;;;;20.43;100.00;102182.28;1871939;75;938821;-78
2021/06/24 10:28:34;;;;;;;16.17;14.47;;;;;;;20.47;100.00;102174.58;1859632;75;941000;-79
2021/06/24 10:31:04;;;;;;;14.97;13.37;;;;;;;20.48;100.00;102174.84;1871846;75;938985;-78
2021/06/24 10:37:13;;;;;;;17.13;15.33;;;;;;;20.55;100.00;102168.16;1892530;74;86598;-79
2021/06/24 10:42:42;;;;;;;13.60;12.23;;;;;;;20.63;100.00;102152.69;1877303;75;86282;-78
2021/06/24 10:48:30;;;;;;;11.93;10.73;;;;;;;20.69;100.00;102161.87;1920883;73;44396;-83
2021/06/24 10:56:48;;;;;;;13.07;11.73;;;;;;;20.93;100.00;102143.16;1873200;75;86569;-83
2021/06/24 10:59:27;;;;;;;13.00;11.63;;;;;;;20.93;100.00;102148.80;1806245;76;939771;-85
2021/06/24 11:05:11;;;;;;;16.73;13.23;;;;;;;21.00;100.00;102149.19;1838666;77;85634;-82
2021/06/24 11:10:53;;;;;;;21.33;17.30;;;;;;;20.96;100.00;102141.11;1877192;75;86620;-76
2021/06/24 11:16:38;;;;;;;16.37;13.93;;;;;;;21.01;100.00;102140.98;1877284;75;86050;-76
2021/06/24 11:22:05;;;;;;;15.07;12.67;;;;;;;20.97;100.00;102141.34;1925853;73;40289;-77
2021/06/24 11:27:49;;;;;;;15.50;13.20;;;;;;;21.03;100.00;102140.06;1920769;73;86311;-76
2021/06/24 11:33:12;;;;;;;15.63;13.90;;;;;;;21.08;100.00;102136.52;1920601;73;39743;-74
2021/06/24 11:38:49;;;;;;;14.00;12.07;;;;;;;21.06;100.00;102128.94;1882709;74;86690;-75
2021/06/24 11:44:13;;;;;;;14.00;12.60;;;;;;;21.09;100.00;102128.88;1946839;72;39764;-79
2021/06/24 12:01:56;;;;;;;14.83;11.80;;;;;;;21.15;100.00;102126.18;1931740;73;39413;-73
2021/06/24 12:07:22;;;;;;;12.27;11.07;;;;;;;21.15;100.00;102117.70;1945413;73;39540;-78
2021/06/24 12:12:48;;;;;;;13.77;10.83;;;;;;;21.20;100.00;102125.47;1882962;75;86042;-75
2021/06/24 12:18:13;;;;;;;13.30;11.30;;;;;;;21.21;100.00;102116.41;1947244;73;39445;-75
2021/06/24 12:23:45;;;;;;;14.57;12.60;;;;;;;21.22;100.00;102118.09;1882212;75;86204;-82
2021/06/24 12:29:10;;;;;;;15.60;12.17;;;;;;;21.14;100.00;102109.80;1947930;72;39660;-74
2021/06/24 12:34:34;;;;;;;16.43;12.60;;;;;;;21.07;100.00;102112.82;1930858;72;39655;-74
2021/06/24 12:40:00;;;;;;;13.00;11.10;;;;;;;21.23;100.00;102106.44;1895446;74;86328;-74
2021/06/24 12:45:26;;;;;;;14.80;12.80;;;;;;;21.42;100.00;102104.77;1915728;73;39687;-73
2021/06/24 12:47:56;;;;;;;10.57;9.37;;;;;;;;;;1820611;76;936738;-74
2021/06/24 12:53:32;;;;;;;11.60;10.40;;;;;;;21.45;100.00;102115.41;1918847;73;39732;-74
2021/06/24 12:58:57;;;;;;;12.80;10.90;;;;;;;21.42;100.00;102109.58;1895158;74;86223;-77
2021/06/24 13:04:24;;;;;;;11.33;10.07;;;;;;;21.48;100.00;102109.69;1945454;73;39658;-75
2021/06/24 13:09:50;;;;;;;13.40;10.50;;;;;;;21.51;100.00;102115.52;1837856;77;86447;-74
2021/06/24 13:15:35;;;;;;;12.90;11.60;;;;;;;21.50;100.00;102111.59;1901242;73;39458;-74
2021/06/24 13:21:02;;;;;;;11.77;10.37;;;;;;;21.31;100.00;102111.86;1829628;76;86299;-74
2021/06/24 13:26:32;;;;;;;12.10;10.77;;;;;;;21.39;100.00;102118.15;1926202;73;39596;-76
2021/06/24 13:31:58;;;;;;;12.77;10.50;;;;;;;21.38;100.00;102115.64;1867511;75;86330;-76
2021/06/24 13:37:23;;;;;;;11.00;9.90;;;;;;;21.39;100.00;102120.98;1915764;73;39638;-76
2021/06/24 13:42:52;;;;;;;11.33;10.13;;;;;;;21.35;100.00;102112.30;1869430;77;85897;-74
2021/06/24 13:48:18;;;;;;;12.03;10.33;;;;;;;21.45;100.00;102112.58;1919147;73;39534;-74
2021/06/24 13:53:43;;;;;;;12.53;10.73;;;;;;;21.43;100.00;102112.09;1881482;75;86872;-74
2021/06/24 13:59:07;;;;;;;10.63;9.53;;;;;;;21.40;100.00;102108.48;1948893;73;39597;-76
2021/06/24 14:04:32;;;;;;;10.73;9.63;;;;;;;21.41;100.00;102102.25;1911896;73;39633;-74
2021/06/24 14:09:58;;;;;;;9.97;8.97;;;;;;;21.38;100.00;102102.91;1882932;75;85760;-76
2021/06/24 14:15:26;;;;;;;10.23;9.08;;;;;;;21.50;100.00;102101.70;1915809;73;39886;-79
2021/06/24 14:20:52;;;;;;;10.95;9.30;;;;;;;21.46;100.00;102093.05;1882900;75;86310;-77
2021/06/24 14:26:17;;;;;;;9.87;8.60;;;;;;;21.15;100.00;102100.75;1919643;73;39782;-78
2021/06/24 14:31:42;;;;;;;8.87;7.97;;;;;;;21.05;100.00;102099.61;1877337;75;85985;-74
2021/06/24 14:37:10;;;;;;;9.57;8.37;;;;;;;21.05;100.00;102092.55;1927165;73;39599;-74
2021/06/24 14:42:34;;;;;;;8.60;7.80;;;;;;;21.27;100.00;102079.18;1937013;73;39462;-73
2021/06/24 14:48:00;;;;;;;9.53;8.43;;;;;;;21.35;100.00;102077.53;1954659;70;85502;-74
2021/06/24 14:56:13;;;;;;;9.10;8.10;;;;;;;21.35;100.00;102072.72;2002945;69;39420;-74
2021/06/24 14:58:43;;;;;;;9.07;8.17;;;;;;;21.38;100.00;102076.06;1936553;73;934427;-72
2021/06/24 15:01:13;;;;;;;8.70;7.90;;;;;;;21.47;100.00;102069.85;1847015;75;936606;-73
2021/06/24 15:03:43;;;;;;;9.40;8.43;;;;;;;21.55;100.00;102064.79;1867165;76;936605;-73
2021/06/24 15:06:14;;;;;;;8.25;7.37;;;;;;;21.66;100.00;102068.95;1856530;75;936572;-78
2021/06/24 15:08:44;;;;;;;9.90;7.97;;;;;;;21.78;100.00;102067.14;1879950;75;936518;-75
2021/06/24 15:11:14;;;;;;;7.85;7.05;;;;;;;21.75;100.00;102057.91;1825269;75;936648;-76
2021/06/24 15:13:44;;;;;;;8.55;7.05;;;;;;;21.77;100.00;102054.76;1840307;76;936606;-76
2021/06/24 15:16:14;;;;;;;7.90;7.10;;;;;;;21.80;100.00;102059.74;1823602;76;936610;-76
2021/06/24 15:18:44;;;;;;;8.45;7.42;;;;;;;21.80;100.00;102054.92;1835682;76;936705;-76
2021/06/24 15:21:14;;;;;;;7.70;6.90;;;;;;;21.78;100.00;102059.23;1823902;76;936646;-76
2021/06/24 15:23:44;;;;;;;8.10;6.83;;;;;;;21.73;100.00;102053.18;1835751;76;936518;-76
2021/06/24 15:26:14;;;;;;;7.50;6.70;;;;;;;21.85;100.00;102055.92;1823707;76;942841;-76
2021/06/24 15:28:48;;;;;;;9.03;7.83;;;;;;;21.84;100.00;102052.25;1835803;76;936700;-77
2021/06/24 15:31:18;;;;;;;9.60;7.72;;;;;;;21.92;100.00;102053.41;1820702;76;936824;-77
2021/06/24 15:33:49;;;;;;;7.40;6.70;;;;;;;21.88;100.00;102048.17;1805702;78;937024;-77
2021/06/24 15:36:19;;;;;;;8.73;7.17;;;;;;;21.84;100.00;102044.34;1842616;76;936514;-78
2021/06/24 15:38:49;;;;;;;8.10;6.87;;;;;;;21.84;100.00;102041.52;1814616;77;936535;-80
2021/06/24 15:41:19;;;;;;;8.07;7.27;;;;;;;21.85;100.00;102036.12;1817578;76;944020;-76
2021/06/24 15:43:49;;;;;;;8.35;7.33;;;;;;;21.80;100.00;102037.11;1845049;76;936642;-79
2021/06/24 15:46:19;;;;;;;10.00;7.07;;;;;;;21.63;100.00;102035.11;1845252;76;936704;-76
2021/06/24 15:48:50;;;;;;;7.63;6.93;;;;;;;21.72;100.00;102032.29;1848193;76;938683;-76
2021/06/24 15:51:20;;;;;;;7.27;6.57;;;;;;;21.67;100.00;102030.45;1860497;76;936574;-76
2021/06/24 15:56:45;;;;;;;7.97;7.23;;;;;;;21.65;100.00;102024.89;1947110;73;39645;-73
2021/06/24 16:02:10;;;;;;;7.63;6.93;;;;;;;21.47;100.00;102033.09;1877203;75;86477;-75
2021/06/24 16:07:36;;;;;;;8.23;7.13;;;;;;;21.39;100.00;102027.69;1949089;73;39733;-75
2021/06/24 16:13:04;;;;;;;8.50;7.70;;;;;;;21.28;100.00;102038.45;1909964;72;39516;-72
2021/06/24 16:18:29;;;;;;;10.97;9.80;;;;;;;21.34;100.00;102025.01;1777514;79;86657;-76
2021/06/24 16:23:53;;;;;;;14.13;12.60;;;;;;;21.33;100.00;102026.17;1945217;73;40238;-75
2021/06/24 16:26:22;;;;;;;16.80;14.90;;;;;;;;;;1893240;75;938861;-75
2021/06/24 16:31:47;;;;;;;11.60;10.20;;;;;;;21.55;100.00;102017.55;1922703;72;39453;-76
2021/06/24 16:37:13;;;;;;;8.33;7.63;;;;;;;21.37;100.00;102015.86;1877305;75;85875;-75
2021/06/24 16:42:40;;;;;;;9.27;8.37;;;;;;;21.30;100.00;102016.94;1947896;73;39671;-76
2021/06/24 16:48:08;;;;;;;6.50;5.90;;;;;;;21.25;100.00;102022.74;1891971;74;86108;-72
2021/06/24 16:53:34;;;;;;;3.95;3.55;;;;;;;21.04;100.00;102023.06;1949349;73;39492;-74
2021/06/24 16:58:57;;;;;;;3.47;2.90;;;;;;;20.87;100.00;102024.68;1914892;72;39591;-73
2021/06/24 17:04:21;;;;;;;3.45;3.15;;;;;;;21.06;100.00;102018.74;1832685;78;86699;-73
2021/06/24 17:09:47;;;;;;;2.77;2.57;;;;;;;21.16;100.00;102017.64;1946703;73;39637;-70
2021/06/24 17:15:16;;;;;;;2.80;2.60;;;;;;;21.32;100.00;102011.20;1892897;75;86294;-71
2021/06/24 17:20:41;;;;;;;3.90;2.77;;;;;;;21.51;100.00;102003.83;1921466;73;39746;-70
2021/06/24 17:26:05;;;;;;;2.98;2.77;;;;;;;21.43;100.00;101996.17;1877434;75;86113;-70
2021/06/24 17:31:30;;;;;;;2.67;2.13;;;;;;;21.49;100.00;101990.59;1882662;75;85515;-70
2021/06/24 17:36:56;;;;;;;3.00;2.70;;;;;;;21.67;100.00;102001.34;1913303;73;39626;-74
2021/06/24 17:42:22;;;;;;;2.93;2.40;;;;;;;21.69;100.00;101996.19;1861411;76;85456;-70
2021/06/24 17:47:47;;;;;;;2.80;2.60;;;;;;;21.63;100.00;101995.52;1918320;73;39645;-70
2021/06/24 17:53:13;;;;;;;2.55;2.35;;;;;;;21.58;100.00;101991.44;1893109;74;86936;-72
2021/06/24 17:58:37;;;;;;;3.17;2.60;;;;;;;21.62;100.00;101986.78;1948834;73;39553;-70
2021/06/24 18:04:01;;;;;;;4.30;3.20;;;;;;;21.56;100.00;101981.05;1943427;73;39791;-70
2021/06/24 18:09:28;;;;;;;3.83;3.20;;;;;;;21.54;100.00;101980.54;1793749;79;86327;-70
2021/06/24 18:14:53;;;;;;;4.00;3.67;;;;;;;21.44;100.00;101981.44;1945105;73;39518;-70
2021/06/24 18:20:18;;;;;;;3.80;3.40;;;;;;;21.35;100.00;101965.30;1837556;77;86648;-70
2021/06/24 18:25:43;;;;;;;5.03;3.43;;;;;;;21.32;100.00;101968.80;1902202;73;40051;-71
2021/06/24 18:31:07;;;;;;;5.47;3.80;;;;;;;21.27;100.00;101968.11;1877020;74;86530;-72
2021/06/24 18:36:32;;;;;;;5.20;3.63;;;;;;;21.22;100.00;101967.69;1838636;77;86809;-70
2021/06/24 18:41:57;;;;;;;4.47;3.67;;;;;;;21.30;100.00;101968.89;1900666;73;39650;-71
2021/06/24 18:47:21;;;;;;;3.40;3.10;;;;;;;21.30;100.00;101970.30;1868155;75;86448;-70
2021/06/24 18:52:44;;;;;;;3.93;3.53;;;;;;;21.30;100.00;101966.06;1919550;73;39546;-70
2021/06/24 18:58:09;;;;;;;4.50;4.07;;;;;;;21.25;100.00;101964.80;1877141;75;86630;-70
2021/06/24 19:03:36;;;;;;;5.53;4.40;;;;;;;21.22;100.00;101966.89;1925494;73;39440;-70
2021/06/24 19:09:01;;;;;;;5.00;4.50;;;;;;;21.17;100.00;101957.15;1943522;73;39526;-71
2021/06/24 19:14:25;;;;;;;4.90;4.40;;;;;;;21.09;100.00;101955.95;1793816;79;86519;-70
2021/06/24 19:19:50;;;;;;;5.57;4.97;;;;;;;21.08;100.00;101940.73;1945832;73;39520;-71
2021/06/24 19:25:16;;;;;;;4.57;4.10;;;;;;;21.11;100.00;101940.89;1837293;77;86661;-70
2021/06/24 19:30:40;;;;;;;4.87;4.43;;;;;;;21.11;100.00;101938.06;1921854;73;39647;-70
2021/06/24 19:36:06;;;;;;;5.07;4.57;;;;;;;21.11;100.00;101937.23;1845801;77;86633;-68
2021/06/24 19:41:32;;;;;;;5.13;4.63;;;;;;;21.04;100.00;101919.37;1869651;76;86660;-70
2021/06/24 19:47:02;;;;;;;4.87;4.47;;;;;;;20.96;100.00;101921.60;1955760;73;39640;-69
2021/06/24 19:52:31;;;;;;;5.60;4.70;;;;;;;20.86;100.00;101935.45;1785108;79;86566;-70
2021/06/24 19:57:56;;;;;;;5.03;4.53;;;;;;;20.72;100.00;101947.44;1933369;72;39688;-71
2021/06/24 20:03:40;;;;;;;5.57;4.97;;;;;;;20.60;100.00;101940.75;1875172;75;86511;-71
2021/06/24 20:09:06;;;;;;;5.23;4.73;;;;;;;20.47;100.00;101940.28;1943171;73;39625;-74
2021/06/24 20:14:51;;;;;;;6.07;5.17;;;;;;;20.20;100.00;101942.69;1891598;74;86085;-70
2021/06/24 20:20:19;;;;;;;5.03;4.53;;;;;;;20.13;100.00;101937.52;1837499;77;86388;-67
2021/06/24 20:25:44;;;;;;;4.90;4.50;;;;;;;20.02;100.00;101936.14;1902128;73;39500;-68
2021/06/24 20:31:11;;;;;;;5.97;4.90;;;;;;;19.98;100.00;101939.35;1877597;75;86808;-69
2021/06/24 20:36:38;;;;;;;5.80;5.20;;;;;;;19.91;100.00;101947.41;1923172;73;39528;-73
2021/06/24 20:42:03;;;;;;;6.17;5.57;;;;;;;19.93;100.00;101946.53;1916352;73;39859;-72
2021/06/24 20:47:28;;;;;;;8.03;5.73;;;;;;;19.95;100.00;101943.62;1794087;79;86294;-70
2021/06/24 20:52:52;;;;;;;7.57;5.60;;;;;;;19.94;100.00;101934.07;1934329;72;39575;-71
2021/06/24 20:58:20;;;;;;;6.13;5.63;;;;;;;20.00;100.00;101937.02;1869542;76;85508;-68
2021/06/24 21:03:47;;;;;;;6.90;5.90;;;;;;;20.01;100.00;101933.05;1946497;73;39639;-68
2021/06/24 21:09:11;;;;;;;6.70;6.10;;;;;;;20.00;100.00;101935.61;1877108;75;86438;-69
2021/06/24 21:14:36;;;;;;;6.47;5.73;;;;;;;20.05;100.00;101935.48;1924224;73;39672;-76
2021/06/24 21:20:01;;;;;;;8.13;6.50;;;;;;;20.03;100.00;101936.95;1943695;73;39597;-68
2021/06/24 21:25:25;;;;;;;7.97;6.53;;;;;;;19.93;100.00;101928.20;1881344;75;86448;-68
2021/06/24 21:30:49;;;;;;;8.93;8.00;;;;;;;19.87;100.00;101922.42;1945616;73;39512;-76
2021/06/24 21:36:14;;;;;;;9.10;7.70;;;;;;;19.86;100.00;101920.17;1837334;77;85867;-67
2021/06/24 21:41:38;;;;;;;9.30;7.97;;;;;;;19.77;100.00;101920.69;1948713;73;39585;-74
2021/06/24 21:47:03;;;;;;;9.60;8.23;;;;;;;19.67;100.00;101919.56;1955699;73;39506;-68
2021/06/24 21:52:27;;;;;;;10.83;8.50;;;;;;;19.62;100.00;101912.64;1882726;75;86099;-73
2021/06/24 21:57:52;;;;;;;8.47;7.60;;;;;;;19.49;100.00;101908.73;1945259;73;39419;-67
2021/06/24 22:03:21;;;;;;;13.10;8.50;;;;;;;19.36;100.00;101910.98;1837576;77;86381;-73
2021/06/24 22:08:48;;;;;;;9.67;8.63;;;;;;;19.24;100.00;101909.31;1918802;73;39553;-68
2021/06/24 22:14:12;;;;;;;10.50;8.57;;;;;;;19.31;100.00;101898.43;1882775;75;86730;-73
2021/06/24 22:19:37;;;;;;;9.33;8.37;;;;;;;19.40;100.00;101891.45;1948872;73;39495;-71
2021/06/24 22:25:06;;;;;;;8.77;7.83;;;;;;;19.40;100.00;101882.43;1888357;73;40563;-72
2021/06/24 22:30:32;;;;;;;10.10;8.13;;;;;;;19.30;100.00;101886.89;1895612;74;86174;-74
2021/06/24 22:36:40;;;;;;;9.57;8.10;;;;;;;19.24;100.00;101895.23;1932991;72;39567;-72
2021/06/24 22:42:06;;;;;;;10.60;8.50;;;;;;;19.16;100.00;101886.70;1904676;75;86747;-72